BCS2665 EGLL-EBBR
Flight info
| Callsign | BCS2665 |
|---|---|
| Flight time | 0h 42m |
| Altitude | 21000 |
| Route | BIG DCT DVR DCT KOK |
| Aircraft | A306/H-SDE3FGHIRWY/LB1 |
Departure
| Time | 2026-05-08 01:10 |
|---|---|
| Airport | London Heathrow Airport (EGLL) |
Arrival
| Time | 2026-05-08 01:52 |
|---|---|
| Airport | Brussels Airport (EBBR) |
| Time | Latitude | Longitude | Altitude | Speed | Heading |
|---|---|---|---|---|---|
| 2026-05-08 01:06 | 51.46313 | -0.48719 | 93 ft | 0 kts | 329° |
| 2026-05-08 01:07 | 51.46317 | -0.48722 | 94 ft | 4 kts | 330° |
| 2026-05-08 01:07 | 51.46392 | -0.48752 | 95 ft | 16 kts | 355° |
| 2026-05-08 01:08 | 51.46474 | -0.48674 | 94 ft | 13 kts | 78° |
| 2026-05-08 01:08 | 51.46478 | -0.48605 | 94 ft | 0 kts | 88° |
| 2026-05-08 01:09 | 51.46479 | -0.48535 | 94 ft | 11 kts | 89° |
| 2026-05-08 01:09 | 51.46479 | -0.48094 | 93 ft | 72 kts | 90° |
| 2026-05-08 01:09 | 51.46483 | -0.46962 | 95 ft | 129 kts | 90° |
| 2026-05-08 01:10 | 51.46486 | -0.45258 | 109 ft | 175 kts | 90° |
| 2026-05-08 01:10 | 51.46461 | -0.43286 | 756 ft | 177 kts | 92° |
| 2026-05-08 01:10 | 51.46397 | -0.41252 | 1449 ft | 189 kts | 96° |
| 2026-05-08 01:10 | 51.46271 | -0.39129 | 2178 ft | 192 kts | 99° |
| 2026-05-08 01:11 | 51.46105 | -0.37057 | 2419 ft | 190 kts | 98° |
| 2026-05-08 01:11 | 51.45963 | -0.34806 | 2674 ft | 214 kts | 99° |
| 2026-05-08 01:11 | 51.45531 | -0.32523 | 3453 ft | 215 kts | 115° |
| 2026-05-08 01:11 | 51.44871 | -0.30377 | 4320 ft | 215 kts | 117° |
| 2026-05-08 01:12 | 51.44174 | -0.28235 | 5157 ft | 218 kts | 117° |
| 2026-05-08 01:12 | 51.43444 | -0.26066 | 5933 ft | 224 kts | 118° |
| 2026-05-08 01:12 | 51.42683 | -0.23878 | 6694 ft | 230 kts | 119° |
| 2026-05-08 01:12 | 51.41885 | -0.21617 | 7422 ft | 237 kts | 120° |
| 2026-05-08 01:13 | 51.41058 | -0.19279 | 8034 ft | 250 kts | 121° |
| 2026-05-08 01:13 | 51.40369 | -0.17334 | 8255 ft | 271 kts | 121° |
| 2026-05-08 01:13 | 51.39414 | -0.14624 | 8789 ft | 286 kts | 121° |
| 2026-05-08 01:13 | 51.38425 | -0.11805 | 9542 ft | 294 kts | 121° |
| 2026-05-08 01:14 | 51.37414 | -0.08914 | 10228 ft | 303 kts | 121° |
| 2026-05-08 01:14 | 51.36351 | -0.05880 | 10571 ft | 322 kts | 121° |
| 2026-05-08 01:14 | 51.35228 | -0.02675 | 10887 ft | 340 kts | 121° |
| 2026-05-08 01:14 | 51.34038 | 0.00716 | 11181 ft | 357 kts | 121° |
| 2026-05-08 01:15 | 51.32945 | 0.04384 | 11465 ft | 375 kts | 111° |
| 2026-05-08 01:15 | 51.32203 | 0.08468 | 11842 ft | 388 kts | 104° |
| 2026-05-08 01:15 | 51.31665 | 0.12722 | 12407 ft | 393 kts | 101° |
| 2026-05-08 01:15 | 51.31209 | 0.17054 | 13058 ft | 396 kts | 100° |
| 2026-05-08 01:16 | 51.30764 | 0.21422 | 13728 ft | 399 kts | 101° |
| 2026-05-08 01:16 | 51.30298 | 0.25809 | 14330 ft | 402 kts | 101° |
| 2026-05-08 01:16 | 51.29799 | 0.30227 | 14706 ft | 406 kts | 102° |
| 2026-05-08 01:16 | 51.29272 | 0.34673 | 15264 ft | 409 kts | 102° |
| 2026-05-08 01:17 | 51.28731 | 0.39094 | 15807 ft | 412 kts | 103° |
| 2026-05-08 01:17 | 51.28170 | 0.43600 | 16369 ft | 416 kts | 103° |
| 2026-05-08 01:17 | 51.27598 | 0.48149 | 16933 ft | 419 kts | 103° |
| 2026-05-08 01:17 | 51.27021 | 0.52727 | 17474 ft | 422 kts | 103° |
| 2026-05-08 01:18 | 51.26437 | 0.57349 | 18009 ft | 426 kts | 103° |
| 2026-05-08 01:18 | 51.25850 | 0.61994 | 18506 ft | 429 kts | 103° |
| 2026-05-08 01:18 | 51.25256 | 0.66682 | 18985 ft | 432 kts | 103° |
| 2026-05-08 01:18 | 51.24658 | 0.71391 | 19460 ft | 434 kts | 103° |
| 2026-05-08 01:19 | 51.24054 | 0.76132 | 19913 ft | 437 kts | 103° |
| 2026-05-08 01:19 | 51.23444 | 0.80905 | 20365 ft | 439 kts | 103° |
| 2026-05-08 01:19 | 51.22830 | 0.85691 | 20790 ft | 442 kts | 103° |
| 2026-05-08 01:19 | 51.22211 | 0.90499 | 20997 ft | 443 kts | 103° |
| 2026-05-08 01:20 | 51.21590 | 0.95313 | 21014 ft | 443 kts | 103° |
| 2026-05-08 01:20 | 51.20967 | 1.00124 | 20995 ft | 443 kts | 103° |
| 2026-05-08 01:20 | 51.20342 | 1.04934 | 21006 ft | 443 kts | 103° |
| 2026-05-08 01:20 | 51.19714 | 1.09746 | 21008 ft | 443 kts | 103° |
| 2026-05-08 01:21 | 51.19084 | 1.14559 | 21011 ft | 443 kts | 103° |
| 2026-05-08 01:21 | 51.18451 | 1.19374 | 21008 ft | 443 kts | 103° |
| 2026-05-08 01:21 | 51.17816 | 1.24186 | 21003 ft | 443 kts | 103° |
| 2026-05-08 01:21 | 51.17188 | 1.28930 | 21015 ft | 443 kts | 103° |
| 2026-05-08 01:22 | 51.16552 | 1.33737 | 21016 ft | 444 kts | 103° |
| 2026-05-08 01:22 | 51.16060 | 1.38596 | 21002 ft | 445 kts | 98° |
| 2026-05-08 01:22 | 51.15744 | 1.43495 | 21008 ft | 445 kts | 96° |
| 2026-05-08 01:22 | 51.15519 | 1.48414 | 21016 ft | 445 kts | 95° |
| 2026-05-08 01:23 | 51.15326 | 1.53330 | 21010 ft | 445 kts | 95° |
| 2026-05-08 01:23 | 51.15133 | 1.58252 | 20999 ft | 445 kts | 95° |
| 2026-05-08 01:23 | 51.14925 | 1.63183 | 20999 ft | 445 kts | 95° |
| 2026-05-08 01:23 | 51.14702 | 1.68105 | 21000 ft | 445 kts | 95° |
| 2026-05-08 01:24 | 51.14465 | 1.73035 | 21008 ft | 445 kts | 96° |
| 2026-05-08 01:24 | 51.14220 | 1.77946 | 21008 ft | 445 kts | 96° |
| 2026-05-08 01:24 | 51.13970 | 1.82859 | 20995 ft | 445 kts | 96° |
| 2026-05-08 01:24 | 51.13716 | 1.87776 | 21003 ft | 445 kts | 96° |
| 2026-05-08 01:25 | 51.13461 | 1.92690 | 21008 ft | 445 kts | 96° |
| 2026-05-08 01:25 | 51.13203 | 1.97601 | 20997 ft | 445 kts | 96° |
| 2026-05-08 01:25 | 51.12945 | 2.02518 | 20998 ft | 445 kts | 96° |
| 2026-05-08 01:25 | 51.12684 | 2.07434 | 20998 ft | 445 kts | 96° |
| 2026-05-08 01:26 | 51.12425 | 2.12287 | 21006 ft | 445 kts | 96° |
| 2026-05-08 01:26 | 51.12161 | 2.17208 | 21006 ft | 445 kts | 96° |
| 2026-05-08 01:26 | 51.11895 | 2.22114 | 20998 ft | 445 kts | 96° |
| 2026-05-08 01:26 | 51.11626 | 2.27037 | 21004 ft | 445 kts | 96° |
| 2026-05-08 01:27 | 51.11356 | 2.31951 | 21004 ft | 445 kts | 96° |
| 2026-05-08 01:27 | 51.11083 | 2.36864 | 21008 ft | 446 kts | 96° |
| 2026-05-08 01:27 | 51.10809 | 2.41778 | 21006 ft | 446 kts | 96° |
| 2026-05-08 01:27 | 51.10533 | 2.46679 | 20996 ft | 446 kts | 96° |
| 2026-05-08 01:28 | 51.10253 | 2.51606 | 20996 ft | 446 kts | 96° |
| 2026-05-08 01:28 | 51.09972 | 2.56513 | 21000 ft | 446 kts | 96° |
| 2026-05-08 01:28 | 51.09690 | 2.61415 | 21003 ft | 446 kts | 96° |
| 2026-05-08 01:28 | 51.09365 | 2.66319 | 20999 ft | 445 kts | 98° |
| 2026-05-08 01:29 | 51.08914 | 2.71140 | 20997 ft | 445 kts | 100° |
| 2026-05-08 01:29 | 51.08430 | 2.75999 | 20994 ft | 445 kts | 100° |
| 2026-05-08 01:29 | 51.07943 | 2.80870 | 20999 ft | 445 kts | 100° |
| 2026-05-08 01:29 | 51.07457 | 2.85725 | 21001 ft | 445 kts | 100° |
| 2026-05-08 01:30 | 51.06970 | 2.90601 | 20998 ft | 445 kts | 100° |
| 2026-05-08 01:30 | 51.06484 | 2.95457 | 21000 ft | 446 kts | 100° |
| 2026-05-08 01:30 | 51.05996 | 3.00326 | 20995 ft | 445 kts | 100° |
| 2026-05-08 01:30 | 51.05376 | 3.05145 | 20997 ft | 445 kts | 108° |
| 2026-05-08 01:31 | 51.04501 | 3.09856 | 20999 ft | 445 kts | 106° |
| 2026-05-08 01:31 | 51.03731 | 3.14616 | 20996 ft | 445 kts | 105° |
| 2026-05-08 01:31 | 51.03025 | 3.19400 | 20996 ft | 445 kts | 104° |
| 2026-05-08 01:31 | 51.02361 | 3.24217 | 20991 ft | 446 kts | 103° |
| 2026-05-08 01:32 | 51.01725 | 3.29038 | 21006 ft | 446 kts | 103° |
| 2026-05-08 01:32 | 51.01104 | 3.33852 | 20890 ft | 445 kts | 102° |
| 2026-05-08 01:32 | 51.00490 | 3.38662 | 20410 ft | 445 kts | 102° |
| 2026-05-08 01:32 | 50.99876 | 3.43492 | 19778 ft | 446 kts | 102° |
| 2026-05-08 01:33 | 50.99266 | 3.48300 | 19170 ft | 443 kts | 102° |
| 2026-05-08 01:33 | 50.98657 | 3.53088 | 18560 ft | 440 kts | 102° |
| 2026-05-08 01:33 | 50.98052 | 3.57837 | 17901 ft | 437 kts | 102° |
| 2026-05-08 01:33 | 50.97453 | 3.62523 | 17245 ft | 432 kts | 102° |
| 2026-05-08 01:34 | 50.96858 | 3.67173 | 16573 ft | 428 kts | 102° |
| 2026-05-08 01:34 | 50.96266 | 3.71774 | 15946 ft | 423 kts | 102° |
| 2026-05-08 01:34 | 50.95678 | 3.76332 | 15314 ft | 419 kts | 102° |
| 2026-05-08 01:34 | 50.95102 | 3.80782 | 14716 ft | 415 kts | 102° |
| 2026-05-08 01:35 | 50.94523 | 3.85242 | 14106 ft | 411 kts | 102° |
| 2026-05-08 01:35 | 50.93949 | 3.89654 | 13461 ft | 407 kts | 102° |
| 2026-05-08 01:35 | 50.93378 | 3.94024 | 12816 ft | 402 kts | 102° |
| 2026-05-08 01:35 | 50.92794 | 3.98327 | 12394 ft | 396 kts | 104° |
| 2026-05-08 01:36 | 50.92459 | 4.02656 | 12187 ft | 397 kts | 88° |
| 2026-05-08 01:36 | 50.92637 | 4.04942 | 12134 ft | 396 kts | 81° |
| 2026-05-08 01:36 | 50.93143 | 4.09132 | 11972 ft | 395 kts | 79° |
| 2026-05-08 01:36 | 50.93639 | 4.13417 | 11807 ft | 394 kts | 81° |
| 2026-05-08 01:37 | 50.94075 | 4.17701 | 11636 ft | 393 kts | 82° |
| 2026-05-08 01:37 | 50.94468 | 4.21976 | 11471 ft | 392 kts | 82° |
| 2026-05-08 01:37 | 50.94832 | 4.26196 | 11314 ft | 390 kts | 83° |
| 2026-05-08 01:37 | 50.95185 | 4.30459 | 11143 ft | 389 kts | 83° |
| 2026-05-08 01:38 | 50.95527 | 4.34696 | 10977 ft | 388 kts | 83° |
| 2026-05-08 01:38 | 50.95865 | 4.38951 | 10810 ft | 386 kts | 83° |
| 2026-05-08 01:38 | 50.96196 | 4.43149 | 10618 ft | 374 kts | 83° |
| 2026-05-08 01:38 | 50.96502 | 4.47062 | 10395 ft | 342 kts | 83° |
| 2026-05-08 01:39 | 50.96782 | 4.50670 | 10207 ft | 317 kts | 83° |
| 2026-05-08 01:39 | 50.97041 | 4.54022 | 10020 ft | 297 kts | 83° |
| 2026-05-08 01:39 | 50.97284 | 4.57189 | 9813 ft | 281 kts | 84° |
| 2026-05-08 01:39 | 50.97514 | 4.60192 | 9601 ft | 266 kts | 84° |
| 2026-05-08 01:40 | 50.97730 | 4.63034 | 9385 ft | 253 kts | 84° |
| 2026-05-08 01:40 | 50.97934 | 4.65728 | 9195 ft | 247 kts | 84° |
| 2026-05-08 01:40 | 50.98138 | 4.68434 | 9023 ft | 245 kts | 84° |
| 2026-05-08 01:40 | 50.98257 | 4.71091 | 8885 ft | 238 kts | 94° |
| 2026-05-08 01:41 | 50.97911 | 4.73644 | 8707 ft | 237 kts | 114° |
| 2026-05-08 01:41 | 50.96942 | 4.75722 | 8525 ft | 237 kts | 142° |
| 2026-05-08 01:41 | 50.95463 | 4.76810 | 8345 ft | 236 kts | 166° |
| 2026-05-08 01:41 | 50.93846 | 4.77251 | 8168 ft | 237 kts | 178° |
| 2026-05-08 01:42 | 50.92226 | 4.76878 | 7982 ft | 237 kts | 201° |
| 2026-05-08 01:42 | 50.90887 | 4.75411 | 7810 ft | 237 kts | 230° |
| 2026-05-08 01:42 | 50.90225 | 4.73066 | 7622 ft | 237 kts | 263° |
| 2026-05-08 01:42 | 50.90371 | 4.70472 | 7462 ft | 238 kts | 284° |
| 2026-05-08 01:43 | 50.90642 | 4.67897 | 7114 ft | 239 kts | 267° |
| 2026-05-08 01:43 | 50.90413 | 4.66183 | 6692 ft | 245 kts | 248° |
| 2026-05-08 01:43 | 50.89047 | 4.63251 | 5769 ft | 257 kts | 226° |
| 2026-05-08 01:43 | 50.88192 | 4.61881 | 5288 ft | 262 kts | 224° |
| 2026-05-08 01:44 | 50.86474 | 4.59157 | 4521 ft | 263 kts | 224° |
| 2026-05-08 01:44 | 50.85606 | 4.57771 | 4169 ft | 262 kts | 224° |
| 2026-05-08 01:44 | 50.83794 | 4.55300 | 3502 ft | 258 kts | 206° |
| 2026-05-08 01:44 | 50.82107 | 4.54727 | 3289 ft | 242 kts | 176° |
| 2026-05-08 01:45 | 50.81019 | 4.55142 | 3216 ft | 238 kts | 155° |
| 2026-05-08 01:45 | 50.79770 | 4.56756 | 3117 ft | 237 kts | 127° |
| 2026-05-08 01:45 | 50.79017 | 4.59064 | 3014 ft | 238 kts | 106° |
| 2026-05-08 01:45 | 50.78921 | 4.61670 | 2996 ft | 241 kts | 80° |
| 2026-05-08 01:46 | 50.79653 | 4.64031 | 3000 ft | 243 kts | 50° |
| 2026-05-08 01:46 | 50.81040 | 4.65543 | 3002 ft | 246 kts | 24° |
| 2026-05-08 01:46 | 50.82635 | 4.66397 | 2993 ft | 234 kts | 18° |
| 2026-05-08 01:46 | 50.84133 | 4.67094 | 2984 ft | 216 kts | 18° |
| 2026-05-08 01:47 | 50.85525 | 4.67731 | 2981 ft | 200 kts | 17° |
| 2026-05-08 01:47 | 50.86802 | 4.68310 | 2983 ft | 182 kts | 17° |
| 2026-05-08 01:47 | 50.87985 | 4.68840 | 2993 ft | 175 kts | 15° |
| 2026-05-08 01:48 | 50.90419 | 4.69306 | 3003 ft | 177 kts | 6° |
| 2026-05-08 01:48 | 50.91647 | 4.69450 | 2997 ft | 177 kts | 5° |
| 2026-05-08 01:48 | 50.92878 | 4.69402 | 2952 ft | 178 kts | 351° |
| 2026-05-08 01:48 | 50.94058 | 4.68804 | 2619 ft | 181 kts | 336° |
| 2026-05-08 01:49 | 50.95168 | 4.67856 | 2305 ft | 181 kts | 323° |
| 2026-05-08 01:49 | 50.95886 | 4.66241 | 1927 ft | 182 kts | 280° |
| 2026-05-08 01:49 | 50.95678 | 4.64399 | 2025 ft | 176 kts | 239° |
| 2026-05-08 01:49 | 50.95094 | 4.62755 | 1986 ft | 168 kts | 238° |
| 2026-05-08 01:50 | 50.94529 | 4.61227 | 1738 ft | 156 kts | 239° |
| 2026-05-08 01:50 | 50.94040 | 4.59711 | 1324 ft | 151 kts | 242° |
| 2026-05-08 01:50 | 50.93583 | 4.58236 | 1125 ft | 149 kts | 243° |
| 2026-05-08 01:50 | 50.93130 | 4.56741 | 974 ft | 151 kts | 244° |
| 2026-05-08 01:51 | 50.92698 | 4.55228 | 805 ft | 150 kts | 245° |
| 2026-05-08 01:51 | 50.92258 | 4.53732 | 631 ft | 149 kts | 244° |
| 2026-05-08 01:51 | 50.91825 | 4.52240 | 458 ft | 147 kts | 246° |
| 2026-05-08 01:51 | 50.91415 | 4.50822 | 268 ft | 139 kts | 245° |
| 2026-05-08 01:52 | 50.91018 | 4.49454 | 146 ft | 133 kts | 245° |
| 2026-05-08 01:52 | 50.90658 | 4.48218 | 124 ft | 109 kts | 244° |
| 2026-05-08 01:52 | 50.90384 | 4.47269 | 126 ft | 78 kts | 245° |
| 2026-05-08 01:52 | 50.90246 | 4.46791 | 129 ft | 30 kts | 246° |
| 2026-05-08 01:53 | 50.90173 | 4.46534 | 138 ft | 23 kts | 246° |
| 2026-05-08 01:53 | 50.90109 | 4.46319 | 140 ft | 20 kts | 245° |
| 2026-05-08 01:53 | 50.90056 | 4.46135 | 143 ft | 17 kts | 245° |
| 2026-05-08 01:53 | 50.90008 | 4.45973 | 145 ft | 16 kts | 245° |
| 2026-05-08 01:54 | 50.89961 | 4.45807 | 146 ft | 18 kts | 246° |
| 2026-05-08 01:54 | 50.89959 | 4.45623 | 147 ft | 17 kts | 316° |
| 2026-05-08 01:54 | 50.90050 | 4.45538 | 147 ft | 14 kts | 336° |
| 2026-05-08 01:54 | 50.90125 | 4.45577 | 147 ft | 12 kts | 59° |
| 2026-05-08 01:55 | 50.90158 | 4.45692 | 146 ft | 11 kts | 67° |
| 2026-05-08 01:55 | 50.90189 | 4.45804 | 145 ft | 11 kts | 64° |
| 2026-05-08 01:55 | 50.90221 | 4.45911 | 144 ft | 10 kts | 65° |
| 2026-05-08 01:55 | 50.90249 | 4.46008 | 143 ft | 9 kts | 65° |
| 2026-05-08 01:56 | 50.90267 | 4.46068 | 142 ft | 7 kts | 64° |
| 2026-05-08 01:56 | 50.90315 | 4.46109 | 141 ft | 8 kts | 357° |
| 2026-05-08 01:56 | 50.90358 | 4.46081 | 141 ft | 5 kts | 334° |
| 2026-05-08 01:56 | 50.90373 | 4.46070 | 141 ft | 0 kts | 335° |